Eagle Creek, Indiana
Current Conditions -  °F | °C
As of 12:54 PM on Thursday 23 Oct 2014 (Local Time) from KIND Reporting Station
Scattered Clouds Scattered Clouds  
Wind Chill: 54°   Ceiling: Unl
Heat Index: 54°   Visibility: 10mi
Dew Point: 41°   Wind: 0mph
Humidity: 62%   Direction: NA
Pressure: 30.22"   Gusts: NA
Location:  39.7691°N, 86.1583°W
Report Text: KIND 231654Z 00000KT 10SM FEW026 SCT250 12/05 A3022 RMK AO2 SLP236 T01220050
Loading
Personal Weather Stations






























Interactive Weather Map
Tropical Storm Tracking
New forecast layout! Learn more

10-Day Weather Forecast

Advertisements
Track Severe Weather on mobile